Time;durP1;ratioP1;P1;durP2;ratioP2;P2;SDS_P1;SDS_P2;PMS_P1;PMS_P2;Temp;Humidity;BMP_temperature;BMP_pressure;BME280_temperature;BME280_humidity;BME280_pressure;Samples;Min_cycle;Max_cycle;Signal;HPM_P1;HPM_P2
2023/12/17 00:02:10;;;;;;;0.82;0.30;;;;;;;9.61;100.00;102163.53;5036777;28;20599;-55
2023/12/17 00:04:37;;;;;;;1.15;0.55;;;;;;;9.63;100.00;102164.06;5037096;28;20048;-52
2023/12/17 00:07:05;;;;;;;1.88;0.55;;;;;;;9.63;100.00;102153.00;5045642;28;20057;-50
2023/12/17 00:09:32;;;;;;;3.90;0.98;;;;;;;9.62;100.00;102154.09;5043813;28;20049;-52
2023/12/17 00:11:59;;;;;;;2.72;0.77;;;;;;;9.62;100.00;102151.34;5043729;28;20529;-54
2023/12/17 00:20:00;;;;;;;5.05;0.88;;;;;;;9.59;100.00;102143.66;4966529;28;20054;-56
2023/12/17 00:22:28;;;;;;;3.65;0.60;;;;;;;9.57;100.00;102137.63;4967080;28;20338;-52
2023/12/17 00:24:55;;;;;;;1.15;0.50;;;;;;;9.55;100.00;102137.09;4969099;28;20051;-48
2023/12/17 00:27:22;;;;;;;4.50;0.85;;;;;;;9.54;100.00;102125.22;4968084;28;20047;-48
2023/12/17 00:29:50;;;;;;;4.15;0.70;;;;;;;9.53;100.00;102122.78;4969582;28;20061;-51
2023/12/17 00:32:17;;;;;;;3.83;0.75;;;;;;;9.53;100.00;102118.03;4967127;28;20050;-48
2023/12/17 00:34:44;;;;;;;6.88;1.92;;;;;;;9.54;100.00;102111.41;4973106;28;20856;-53
2023/12/17 00:37:12;;;;;;;3.72;0.80;;;;;;;9.52;100.00;102121.13;4973491;28;20039;-52
2023/12/17 00:39:39;;;;;;;6.40;1.70;;;;;;;9.51;100.00;102116.69;4969229;28;20873;-52
2023/12/17 00:42:07;;;;;;;4.38;1.48;;;;;;;9.52;100.00;102104.53;4969005;28;20059;-51
2023/12/17 00:44:34;;;;;;;2.58;1.27;;;;;;;9.53;100.00;102087.63;4968728;28;20515;-51
2023/12/17 00:47:02;;;;;;;3.55;0.73;;;;;;;9.53;100.00;102095.13;4969632;28;20057;-49
2023/12/17 00:49:29;;;;;;;2.97;1.17;;;;;;;9.52;100.00;102077.72;4968488;28;20140;-48
2023/12/17 00:51:57;;;;;;;3.65;1.52;;;;;;;9.53;100.00;102078.53;4969719;28;20055;-51
2023/12/17 00:54:24;;;;;;;2.50;0.70;;;;;;;9.55;100.00;102070.75;4969320;28;20051;-49
2023/12/17 00:56:51;;;;;;;9.13;1.27;;;;;;;9.58;100.00;102059.09;4969017;28;20719;-48
2023/12/17 00:59:19;;;;;;;3.03;0.30;;;;;;;9.60;100.00;102059.59;4953064;28;20057;-49
2023/12/17 01:01:46;;;;;;;1.35;0.32;;;;;;;9.63;100.00;102050.69;4968881;28;20047;-53
2023/12/17 01:04:13;;;;;;;2.58;0.40;;;;;;;9.64;100.00;102053.13;4968810;28;20074;-51
2023/12/17 01:06:42;;;;;;;1.75;0.50;;;;;;;9.67;100.00;102051.69;4969374;28;20050;-51
2023/12/17 01:09:10;;;;;;;3.53;0.50;;;;;;;9.68;100.00;102053.34;4969100;28;20054;-50
2023/12/17 01:11:37;;;;;;;0.70;0.30;;;;;;;9.69;100.00;102039.19;4969149;28;20059;-50
2023/12/17 01:14:05;;;;;;;4.70;1.08;;;;;;;9.70;100.00;102035.31;4968866;28;20066;-48
2023/12/17 01:16:32;;;;;;;1.63;0.30;;;;;;;9.71;100.00;102036.16;4968859;28;20536;-50
2023/12/17 01:19:00;;;;;;;2.40;0.30;;;;;;;9.71;100.00;102030.63;4951024;28;20488;-52
2023/12/17 01:21:27;;;;;;;1.55;0.20;;;;;;;9.72;100.00;102026.69;4968852;28;20057;-48
2023/12/17 01:23:57;;;;;;;0.73;0.20;;;;;;;9.73;100.00;102011.75;4968798;28;20062;-50
2023/12/17 01:26:26;;;;;;;1.45;0.20;;;;;;;9.72;100.00;102026.69;4949642;28;20062;-49
2023/12/17 01:28:54;;;;;;;0.10;0.10;;;;;;;9.70;100.00;102029.78;4949170;28;20059;-50
2023/12/17 01:31:21;;;;;;;0.20;0.20;;;;;;;9.71;100.00;102025.91;4956467;28;20513;-51
2023/12/17 01:33:49;;;;;;;1.63;0.28;;;;;;;9.72;100.00;102024.75;4968781;28;20560;-54
2023/12/17 01:36:16;;;;;;;0.20;0.10;;;;;;;9.72;100.00;102004.56;4968290;28;20057;-50
2023/12/17 01:38:44;;;;;;;1.27;0.10;;;;;;;9.72;100.00;102012.88;4961764;28;20051;-52
2023/12/17 01:41:11;;;;;;;0.10;0.10;;;;;;;9.74;100.00;102002.34;4968779;28;20113;-50
2023/12/17 01:43:38;;;;;;;0.47;0.08;;;;;;;9.74;100.00;102008.66;4968770;28;20038;-51
2023/12/17 01:46:06;;;;;;;0.57;0.10;;;;;;;9.74;100.00;101996.81;4968548;28;20054;-53
2023/12/17 01:48:35;;;;;;;0.43;0.10;;;;;;;9.75;100.00;101995.66;4962981;28;20046;-49
2023/12/17 01:51:03;;;;;;;0.20;0.10;;;;;;;9.77;100.00;101990.63;4964069;28;20493;-51
2023/12/17 01:53:30;;;;;;;0.50;0.10;;;;;;;9.78;100.00;101997.81;4971688;28;20039;-50
2023/12/17 01:55:58;;;;;;;2.10;0.20;;;;;;;9.77;100.00;101983.16;4972170;28;20047;-50
2023/12/17 01:58:27;;;;;;;2.28;0.40;;;;;;;9.79;100.00;101969.03;4970198;28;20062;-52
2023/12/17 02:00:56;;;;;;;0.22;0.10;;;;;;;9.76;100.00;101959.44;4973432;28;20051;-49
2023/12/17 02:03:24;;;;;;;3.00;0.75;;;;;;;9.76;100.00;101976.00;4964911;28;20065;-50
2023/12/17 02:05:51;;;;;;;1.10;0.13;;;;;;;9.75;100.00;101970.78;4968002;28;20055;-49
2023/12/17 02:08:18;;;;;;;0.22;0.20;;;;;;;9.76;100.00;101966.91;4966703;28;20050;-53
2023/12/17 02:10:46;;;;;;;1.48;0.35;;;;;;;9.77;100.00;101969.34;4968183;28;20065;-50
2023/12/17 02:13:15;;;;;;;7.45;0.35;;;;;;;9.77;100.00;101954.69;4981508;28;20042;-52
2023/12/17 02:15:42;;;;;;;1.42;0.20;;;;;;;9.78;100.00;101953.56;4971197;28;20050;-50
2023/12/17 02:18:09;;;;;;;0.73;0.30;;;;;;;9.78;100.00;101948.03;4967624;28;20054;-52
2023/12/17 02:20:37;;;;;;;1.52;0.20;;;;;;;9.79;100.00;101927.56;4971667;28;20070;-51
2023/12/17 02:23:05;;;;;;;3.65;0.20;;;;;;;9.80;100.00;101929.19;4967840;28;20062;-50
2023/12/17 02:25:32;;;;;;;0.75;0.43;;;;;;;9.81;100.00;101922.53;4970847;28;20046;-52
2023/12/17 02:27:59;;;;;;;0.10;0.03;;;;;;;9.82;100.00;101927.72;4971958;28;20066;-53
2023/12/17 02:30:27;;;;;;;0.82;0.30;;;;;;;9.84;100.00;101924.69;4971106;28;20054;-51
2023/12/17 02:32:54;;;;;;;0.20;0.20;;;;;;;9.84;100.00;101924.69;4980612;28;20046;-54
2023/12/17 02:35:22;;;;;;;0.55;0.10;;;;;;;9.84;100.00;101924.69;4986187;28;20065;-49
2023/12/17 02:37:49;;;;;;;0.45;0.30;;;;;;;9.82;100.00;101933.25;4970776;28;20054;-51
2023/12/17 02:40:17;;;;;;;0.93;0.20;;;;;;;9.83;100.00;101923.03;4971383;28;20053;-49
2023/12/17 02:42:44;;;;;;;3.13;0.10;;;;;;;9.82;100.00;101924.19;4971528;28;20505;-51
2023/12/17 02:45:12;;;;;;;0.60;0.20;;;;;;;9.84;100.00;101921.09;4984329;28;20042;-53
2023/12/17 02:47:39;;;;;;;0.65;0.00;;;;;;;9.83;100.00;101928.56;4971202;28;20521;-50
2023/12/17 02:50:07;;;;;;;1.23;0.15;;;;;;;9.84;100.00;101913.63;4971043;28;20069;-50
2023/12/17 02:52:35;;;;;;;0.40;0.00;;;;;;;9.84;100.00;101910.03;4971390;28;20063;-53
2023/12/17 02:55:02;;;;;;;3.50;0.20;;;;;;;9.82;100.00;101905.59;4954167;28;20047;-51
2023/12/17 02:57:30;;;;;;;0.10;0.10;;;;;;;9.82;100.00;101909.53;4971121;28;20047;-53
2023/12/17 02:59:57;;;;;;;0.17;0.10;;;;;;;9.80;100.00;101898.75;4970718;28;20082;-51
2023/12/17 03:02:24;;;;;;;1.27;0.10;;;;;;;9.80;100.00;101901.53;5123797;22;20049;-50
2023/12/17 03:04:52;;;;;;;1.20;0.05;;;;;;;9.77;100.00;101885.53;5030004;28;20606;-49
2023/12/17 03:07:19;;;;;;;4.55;0.10;;;;;;;9.77;100.00;101880.00;5030209;28;20053;-48
2023/12/17 03:09:47;;;;;;;0.15;0.08;;;;;;;9.76;100.00;101883.94;5029628;28;20079;-46
2023/12/17 03:12:15;;;;;;;0.55;0.20;;;;;;;9.76;100.00;101878.41;5029184;28;20057;-52
2023/12/17 03:14:42;;;;;;;0.35;0.10;;;;;;;9.75;100.00;101890.56;5029490;28;20049;-47
2023/12/17 03:17:09;;;;;;;1.35;0.10;;;;;;;9.73;100.00;101890.91;5029556;28;20054;-48
2023/12/17 03:19:37;;;;;;;1.05;0.30;;;;;;;9.72;100.00;101888.44;5029826;28;20054;-50
2023/12/17 03:22:04;;;;;;;1.45;0.20;;;;;;;9.72;100.00;101889.25;5029490;28;20111;-47
2023/12/17 03:24:32;;;;;;;1.13;0.20;;;;;;;9.73;100.00;101901.13;5030004;28;20053;-51
2023/12/17 03:26:59;;;;;;;0.35;0.10;;;;;;;9.72;100.00;101888.44;5029401;28;20495;-53
2023/12/17 03:29:28;;;;;;;3.95;0.20;;;;;;;9.72;100.00;101877.38;5029077;28;20466;-50
2023/12/17 03:31:57;;;;;;;0.68;0.20;;;;;;;9.71;100.00;101875.75;5029613;28;20050;-52
2023/12/17 03:34:26;;;;;;;0.35;0.20;;;;;;;9.70;100.00;101869.41;5029652;28;20049;-48
2023/12/17 03:36:54;;;;;;;1.48;0.20;;;;;;;9.71;100.00;101873.00;5029160;28;20049;-47
2023/12/17 03:39:21;;;;;;;3.53;0.20;;;;;;;9.70;100.00;101871.34;5029498;28;20046;-49
2023/12/17 03:41:49;;;;;;;2.75;0.10;;;;;;;9.71;100.00;101870.22;5029024;28;20053;-48
2023/12/17 03:44:16;;;;;;;0.38;0.10;;;;;;;9.70;100.00;101850.03;5029324;28;20515;-48
2023/12/17 03:46:44;;;;;;;3.42;0.20;;;;;;;9.70;100.00;101854.75;5029839;28;20054;-47
2023/12/17 03:49:11;;;;;;;0.52;0.20;;;;;;;9.70;100.00;101857.50;5028798;28;20064;-47
2023/12/17 03:51:38;;;;;;;1.27;0.15;;;;;;;9.70;100.00;101851.97;5029113;28;20049;-48
2023/12/17 03:54:06;;;;;;;1.95;0.20;;;;;;;9.70;100.00;101863.88;5029142;28;20494;-48
2023/12/17 03:56:33;;;;;;;4.28;0.30;;;;;;;9.70;100.00;101854.75;5027562;28;20135;-48
2023/12/17 03:59:00;;;;;;;0.70;0.20;;;;;;;9.70;100.00;101849.22;5028591;28;20053;-48
2023/12/17 04:01:28;;;;;;;1.15;0.17;;;;;;;9.69;100.00;101864.97;5026916;28;20053;-49
2023/12/17 04:03:57;;;;;;;1.45;0.20;;;;;;;9.68;100.00;101838.47;5027898;28;20056;-50
2023/12/17 04:06:24;;;;;;;2.25;0.43;;;;;;;9.66;100.00;101834.41;5028931;28;20511;-49
2023/12/17 04:08:52;;;;;;;1.75;0.22;;;;;;;9.67;100.00;101830.47;5027924;28;20507;-51
2023/12/17 04:11:22;;;;;;;1.00;0.32;;;;;;;9.66;100.00;101834.41;5028266;28;20076;-46
2023/12/17 04:13:49;;;;;;;0.63;0.17;;;;;;;9.65;100.00;101827.22;5028638;28;20107;-49
2023/12/17 04:16:16;;;;;;;2.53;0.73;;;;;;;9.63;100.00;101841.38;5027354;28;20050;-48
2023/12/17 04:18:44;;;;;;;5.22;0.50;;;;;;;9.62;100.00;101834.19;5006647;28;20049;-49
2023/12/17 04:21:11;;;;;;;2.25;0.60;;;;;;;9.62;100.00;101825.91;5023592;28;20053;-49
2023/12/17 04:23:38;;;;;;;1.90;0.50;;;;;;;9.62;100.00;101830.59;5027999;28;20056;-51
2023/12/17 04:26:06;;;;;;;14.00;2.83;;;;;;;9.62;100.00;101822.31;5029098;28;20049;-47
2023/12/17 04:28:33;;;;;;;4.25;0.40;;;;;;;9.63;100.00;101812.91;5014851;28;20052;-49
2023/12/17 04:31:01;;;;;;;2.08;0.60;;;;;;;9.63;100.00;101818.44;5028039;28;20045;-49
2023/12/17 04:33:28;;;;;;;6.78;0.40;;;;;;;9.65;100.00;101807.88;5028183;28;20042;-46
2023/12/17 04:35:56;;;;;;;4.30;0.80;;;;;;;9.66;100.00;101801.22;5027997;28;20053;-49
2023/12/17 04:38:23;;;;;;;2.17;0.50;;;;;;;9.67;100.00;101791.78;5026286;28;20577;-49
2023/12/17 04:40:51;;;;;;;3.63;0.60;;;;;;;9.67;100.00;101819.41;5027340;28;20534;-52
2023/12/17 04:43:18;;;;;;;2.58;0.38;;;;;;;9.68;100.00;101796.19;5027600;28;20041;-48
2023/12/17 04:45:45;;;;;;;7.18;1.85;;;;;;;9.68;100.00;101796.19;5027088;28;20050;-48
2023/12/17 04:48:13;;;;;;;5.07;0.73;;;;;;;9.68;100.00;101791.47;5026440;28;20041;-47
2023/12/17 04:50:40;;;;;;;5.40;0.70;;;;;;;9.68;100.00;101785.94;5027600;28;20423;-50
2023/12/17 04:53:08;;;;;;;3.83;0.43;;;;;;;9.68;100.00;101782.34;5026760;28;20049;-47
2023/12/17 04:55:35;;;;;;;2.78;0.75;;;;;;;9.67;100.00;101789.00;5027392;28;20049;-48
2023/12/17 04:58:02;;;;;;;4.18;0.90;;;;;;;9.68;100.00;101787.88;5026691;28;20045;-52
2023/12/17 05:00:30;;;;;;;3.78;0.52;;;;;;;9.68;100.00;101793.41;5026974;28;20056;-46
2023/12/17 05:02:57;;;;;;;1.50;0.60;;;;;;;9.68;100.00;101799.78;5026118;28;20041;-48
2023/12/17 05:05:25;;;;;;;6.80;0.73;;;;;;;9.68;100.00;101787.88;5026549;28;20418;-46
2023/12/17 05:07:53;;;;;;;2.10;0.65;;;;;;;9.67;100.00;101786.25;5027039;28;20054;-48
2023/12/17 05:10:20;;;;;;;1.63;0.57;;;;;;;9.66;100.00;101796.47;5026407;28;20052;-53
2023/12/17 05:12:48;;;;;;;6.00;0.75;;;;;;;9.67;100.00;101783.47;5008492;28;20522;-49
2023/12/17 05:15:15;;;;;;;4.65;0.95;;;;;;;9.66;100.00;101784.63;5025825;28;20041;-50
2023/12/17 05:17:43;;;;;;;7.45;1.30;;;;;;;9.67;100.00;101791.78;5027454;28;20060;-48
2023/12/17 05:20:10;;;;;;;6.85;1.00;;;;;;;9.65;100.00;101788.50;5026772;28;20050;-48
2023/12/17 05:22:38;;;;;;;7.25;1.52;;;;;;;9.64;100.00;101770.28;5026669;28;20068;-46
2023/12/17 05:25:07;;;;;;;6.82;2.92;;;;;;;9.65;100.00;101780.22;5027288;28;20048;-49
2023/12/17 05:27:36;;;;;;;9.07;1.48;;;;;;;9.63;100.00;101772.25;5026479;28;20038;-47
2023/12/17 05:30:04;;;;;;;7.18;1.60;;;;;;;9.64;100.00;101770.28;5027054;28;20049;-48
2023/12/17 05:32:32;;;;;;;3.72;1.05;;;;;;;9.64;100.00;101787.69;5027051;28;20392;-50
2023/12/17 05:35:00;;;;;;;9.68;1.25;;;;;;;9.65;100.00;101789.34;5023807;28;20049;-48
2023/12/17 05:37:27;;;;;;;10.02;1.20;;;;;;;9.66;100.00;101779.88;5024589;28;20164;-51
2023/12/17 05:39:55;;;;;;;6.68;1.50;;;;;;;9.66;100.00;101774.34;5009372;28;20052;-50
2023/12/17 05:42:22;;;;;;;8.40;1.20;;;;;;;9.67;100.00;101784.31;5026283;28;20049;-48
2023/12/17 05:44:50;;;;;;;6.10;1.52;;;;;;;9.68;100.00;101791.47;5009327;28;20053;-51
2023/12/17 05:47:18;;;;;;;8.23;1.83;;;;;;;9.69;100.00;101787.56;5007751;28;20056;-46
2023/12/17 05:49:45;;;;;;;7.88;1.42;;;;;;;9.69;100.00;101786.75;5026765;28;20058;-50
2023/12/17 05:52:13;;;;;;;10.35;1.40;;;;;;;9.71;100.00;101795.56;5026127;28;20044;-48
2023/12/17 05:54:43;;;;;;;7.05;2.90;;;;;;;9.71;100.00;101781.72;5026991;28;20511;-46
2023/12/17 05:57:10;;;;;;;9.98;1.65;;;;;;;9.70;100.00;101791.97;5026517;28;20061;-49
2023/12/17 05:59:38;;;;;;;11.57;1.48;;;;;;;9.70;100.00;101772.63;5028975;28;20060;-47
2023/12/17 06:02:06;;;;;;;13.00;2.13;;;;;;;9.71;100.00;101782.56;5029798;28;20422;-47
2023/12/17 06:04:35;;;;;;;18.77;3.22;;;;;;;9.71;100.00;101792.78;5012386;28;20045;-47
2023/12/17 06:07:02;;;;;;;11.27;1.88;;;;;;;9.72;100.00;101784.19;5030053;28;20049;-50
2023/12/17 06:09:31;;;;;;;16.38;2.50;;;;;;;9.74;100.00;101770.06;5030331;28;20056;-48
2023/12/17 06:11:58;;;;;;;5.00;1.25;;;;;;;9.73;100.00;101780.28;5029747;28;20137;-55
2023/12/17 06:14:25;;;;;;;4.03;1.13;;;;;;;9.73;100.00;101774.75;5029296;28;20054;-47
2023/12/17 06:16:53;;;;;;;11.95;1.17;;;;;;;9.74;100.00;101781.91;5028515;28;20041;-47
2023/12/17 06:19:21;;;;;;;11.32;1.80;;;;;;;9.74;100.00;101768.06;5029179;28;20157;-47
2023/12/17 06:21:49;;;;;;;9.57;1.20;;;;;;;9.74;100.00;101773.59;5029672;28;20041;-47
2023/12/17 06:24:16;;;;;;;10.27;1.65;;;;;;;9.75;100.00;101772.50;5030427;28;20851;-49
2023/12/17 06:26:43;;;;;;;11.98;1.38;;;;;;;9.74;100.00;101773.59;5029602;28;20054;-47
2023/12/17 06:29:13;;;;;;;6.07;1.60;;;;;;;9.76;100.00;101779.66;5029363;28;20045;-48
2023/12/17 06:31:41;;;;;;;4.22;1.30;;;;;;;9.75;100.00;101760.59;5029041;28;20045;-52
2023/12/17 06:34:08;;;;;;;11.13;1.40;;;;;;;9.77;100.00;101780.47;5029819;28;20045;-51
2023/12/17 06:36:36;;;;;;;8.90;1.20;;;;;;;9.77;100.00;101780.47;5028434;28;20052;-49
2023/12/17 06:39:08;;;;;;;6.43;1.25;;;;;;;9.77;100.00;101774.94;5025368;28;20053;-49
2023/12/17 06:41:36;;;;;;;;;;;;;;;9.75;100.00;101769.72;5029391;28;20049;-46
2023/12/17 06:44:03;;;;;;;6.82;2.22;;;;;;;9.74;100.00;101767.28;5030138;28;19925;-47
2023/12/17 06:46:31;;;;;;;9.95;1.40;;;;;;;9.73;100.00;101762.88;5011415;28;20068;-46
2023/12/17 06:48:58;;;;;;;6.90;1.20;;;;;;;9.75;100.00;101766.13;5029493;28;20045;-51
2023/12/17 06:51:25;;;;;;;12.48;1.42;;;;;;;9.74;100.00;101759.78;5024048;28;20061;-51
2023/12/17 06:53:53;;;;;;;9.60;1.50;;;;;;;9.74;100.00;101768.06;5011341;28;20099;-50
2023/12/17 06:56:20;;;;;;;4.68;1.00;;;;;;;9.75;100.00;101766.13;5029421;28;20057;-48
2023/12/17 06:58:48;;;;;;;4.18;1.20;;;;;;;9.75;100.00;101760.59;5029925;28;20041;-46
2023/12/17 07:01:16;;;;;;;5.18;0.73;;;;;;;9.75;100.00;101750.38;5028910;28;20061;-47
2023/12/17 07:03:43;;;;;;;6.63;1.25;;;;;;;9.76;100.00;101765.00;5029698;28;20045;-47
2023/12/17 07:06:11;;;;;;;5.10;0.90;;;;;;;9.77;100.00;101766.63;5029537;28;20057;-47
2023/12/17 07:08:39;;;;;;;4.95;0.90;;;;;;;9.77;100.00;101755.56;5029512;28;20053;-48
2023/12/17 07:11:06;;;;;;;6.95;1.25;;;;;;;9.76;100.00;101756.72;5028640;28;20053;-48
2023/12/17 07:13:33;;;;;;;6.93;1.20;;;;;;;9.76;100.00;101773.31;5028919;28;20045;-48
2023/12/17 07:16:01;;;;;;;5.20;1.30;;;;;;;9.78;100.00;101768.28;5029041;28;20042;-52
2023/12/17 07:18:29;;;;;;;10.80;1.27;;;;;;;9.79;99.93;101750.56;5028827;28;20045;-47
2023/12/17 07:20:56;;;;;;;5.47;1.30;;;;;;;9.80;99.94;101757.72;5029195;28;20607;-47
2023/12/17 07:23:25;;;;;;;9.18;1.25;;;;;;;9.80;99.70;101747.47;5027844;28;20060;-50
2023/12/17 07:25:53;;;;;;;4.45;1.20;;;;;;;9.82;99.83;101747.97;5029856;28;20045;-49
2023/12/17 07:28:20;;;;;;;4.78;1.00;;;;;;;9.82;99.88;101749.94;5027511;28;20714;-49
2023/12/17 07:30:47;;;;;;;3.83;0.90;;;;;;;9.82;99.69;101729.75;5027943;28;20135;-50
2023/12/17 07:33:15;;;;;;;4.90;1.10;;;;;;;9.82;99.84;101743.59;5028758;28;20496;-48
2023/12/17 07:35:43;;;;;;;5.60;1.45;;;;;;;9.82;99.72;101753.50;5028716;28;20046;-48
2023/12/17 07:38:11;;;;;;;2.13;0.80;;;;;;;9.82;99.81;101749.94;5029122;28;20049;-48
2023/12/17 07:40:41;;;;;;;3.50;0.95;;;;;;;9.81;99.83;101762.13;5028261;28;20041;-48
2023/12/17 07:43:08;;;;;;;3.85;1.42;;;;;;;9.83;99.82;101751.53;5029025;28;20416;-47
2023/12/17 07:45:36;;;;;;;7.22;1.10;;;;;;;9.85;99.53;101743.75;5028474;28;20048;-47
2023/12/17 07:48:04;;;;;;;3.22;1.17;;;;;;;9.86;99.42;101745.38;5028959;28;20061;-47
2023/12/17 07:50:32;;;;;;;5.43;1.33;;;;;;;9.85;99.58;101727.16;5028712;28;20050;-48
2023/12/17 07:53:00;;;;;;;3.17;0.90;;;;;;;9.86;99.56;101727.97;5028434;28;20045;-51
2023/12/17 07:55:27;;;;;;;3.17;1.23;;;;;;;9.86;99.49;101750.09;5027538;28;20044;-49
2023/12/17 07:57:54;;;;;;;5.05;0.93;;;;;;;9.86;99.29;101733.50;5028366;28;20037;-48
2023/12/17 08:00:22;;;;;;;2.10;1.10;;;;;;;9.86;99.41;101728.78;5028046;28;20057;-47
2023/12/17 08:02:49;;;;;;;3.33;0.80;;;;;;;9.85;99.32;101735.44;5027776;28;20046;-48
2023/12/17 08:05:17;;;;;;;1.45;0.80;;;;;;;9.82;99.40;101728.59;5027566;28;20730;-48
2023/12/17 08:07:45;;;;;;;4.25;1.20;;;;;;;9.84;99.44;101739.38;5027838;28;20794;-48
2023/12/17 08:10:12;;;;;;;2.25;0.77;;;;;;;9.82;99.59;101741.63;5027769;28;20041;-47
2023/12/17 08:12:39;;;;;;;3.05;0.80;;;;;;;9.81;99.68;101748.28;5028434;28;20057;-48
2023/12/17 08:15:07;;;;;;;4.80;1.27;;;;;;;9.80;99.72;101749.41;5027223;28;20049;-48
2023/12/17 08:17:34;;;;;;;23.35;1.95;;;;;;;9.82;99.75;101743.59;5024908;28;20053;-48
2023/12/17 08:20:02;;;;;;;3.70;0.75;;;;;;;9.82;99.67;101743.59;5025204;28;20057;-47
2023/12/17 08:22:30;;;;;;;5.35;0.52;;;;;;;9.83;99.83;101743.25;5024770;28;20594;-47
2023/12/17 08:24:57;;;;;;;8.05;0.70;;;;;;;9.84;99.54;101755.13;5010032;28;20064;-49
2023/12/17 08:27:24;;;;;;;5.57;1.20;;;;;;;9.85;99.45;101752.03;5026357;28;20060;-47
2023/12/17 08:29:52;;;;;;;5.65;0.73;;;;;;;9.86;99.53;101753.69;5026924;28;20124;-50
2023/12/17 08:32:20;;;;;;;1.15;0.73;;;;;;;9.87;99.47;101749.81;5027239;28;20041;-48
2023/12/17 08:34:47;;;;;;;4.55;0.80;;;;;;;9.89;99.58;101749.47;5026876;28;20399;-49
2023/12/17 08:37:15;;;;;;;7.97;0.88;;;;;;;9.89;99.64;101758.59;5026292;28;20045;-50
2023/12/17 08:39:43;;;;;;;7.68;1.75;;;;;;;9.88;99.69;101751.41;5027741;28;20029;-46
2023/12/17 08:42:10;;;;;;;7.45;0.98;;;;;;;9.89;99.65;101757.78;5026639;28;20049;-47
2023/12/17 08:44:38;;;;;;;4.93;1.33;;;;;;;9.89;99.67;101750.28;5018770;28;20066;-49
2023/12/17 08:47:05;;;;;;;7.97;1.30;;;;;;;9.87;99.67;101741.50;5023798;28;20193;-48
2023/12/17 08:49:33;;;;;;;6.13;1.17;;;;;;;9.88;99.97;101745.06;5028012;28;20064;-46
2023/12/17 08:52:01;;;;;;;6.18;1.42;;;;;;;9.90;99.92;101756.66;5027910;28;20411;-48
2023/12/17 08:54:28;;;;;;;2.85;0.88;;;;;;;9.88;99.83;101751.41;5027486;28;20063;-48
2023/12/17 08:56:55;;;;;;;4.88;1.10;;;;;;;9.89;99.77;101727.34;5027446;28;20406;-47
2023/12/17 08:59:23;;;;;;;5.25;0.95;;;;;;;9.89;99.66;101739.22;5027132;28;20702;-47
2023/12/17 09:01:52;;;;;;;2.50;0.98;;;;;;;9.90;99.67;101731.75;5026990;28;20048;-46
2023/12/17 09:04:19;;;;;;;7.07;1.48;;;;;;;9.88;99.73;101740.34;5027025;28;20511;-50
2023/12/17 09:06:47;;;;;;;7.18;1.00;;;;;;;9.91;99.74;101750.78;5026952;28;20503;-49
2023/12/17 09:09:15;;;;;;;5.40;0.77;;;;;;;9.95;99.82;101743.50;5027348;28;20506;-47
2023/12/17 09:11:43;;;;;;;4.82;1.25;;;;;;;9.96;99.75;101734.06;5026044;28;20402;-50
2023/12/17 09:14:10;;;;;;;5.43;1.05;;;;;;;9.99;99.62;101752.78;5027027;28;20052;-48
2023/12/17 09:16:37;;;;;;;7.03;1.40;;;;;;;10.00;99.65;101751.66;5027715;28;20064;-47
2023/12/17 09:19:05;;;;;;;3.03;2.17;;;;;;;10.02;99.75;101738.31;5027401;28;20394;-48
2023/12/17 09:21:33;;;;;;;3.65;1.05;;;;;;;10.05;99.65;101747.94;5024521;28;20069;-50
2023/12/17 09:24:00;;;;;;;3.50;0.98;;;;;;;10.07;99.56;101752.03;5027308;28;20068;-48
2023/12/17 09:26:28;;;;;;;8.32;1.30;;;;;;;10.08;99.52;101753.66;5023597;28;20062;-46
2023/12/17 09:28:55;;;;;;;5.13;0.90;;;;;;;10.09;99.53;101762.75;5027111;28;20050;-49
2023/12/17 09:31:22;;;;;;;5.97;1.60;;;;;;;10.08;99.51;101758.38;5026270;28;20415;-48
2023/12/17 09:33:50;;;;;;;7.60;1.67;;;;;;;10.08;99.53;101770.28;5028853;28;20053;-50
2023/12/17 09:36:17;;;;;;;9.52;1.38;;;;;;;10.10;99.61;101768.00;5033638;28;20041;-50
2023/12/17 09:38:45;;;;;;;6.30;1.45;;;;;;;10.13;99.50;101769.34;5030667;28;20060;-48
2023/12/17 09:41:12;;;;;;;8.05;1.80;;;;;;;10.16;99.54;101780.59;5030174;28;20053;-59
2023/12/17 09:43:40;;;;;;;8.35;1.90;;;;;;;10.18;99.63;101772.78;5030660;28;20058;-51
2023/12/17 09:46:07;;;;;;;9.25;1.70;;;;;;;10.20;99.43;101767.75;5030639;28;20056;-50
2023/12/17 09:48:35;;;;;;;5.65;1.17;;;;;;;10.22;99.47;101754.41;5030799;28;20050;-46
2023/12/17 09:51:03;;;;;;;9.25;1.50;;;;;;;10.27;99.45;101757.03;5030621;28;20056;-47
2023/12/17 09:53:33;;;;;;;11.52;1.92;;;;;;;10.29;99.23;101740.94;5029753;28;20427;-49
2023/12/17 09:56:01;;;;;;;5.75;1.27;;;;;;;10.34;99.40;101753.81;5030282;28;20084;-47
2023/12/17 09:58:28;;;;;;;7.60;2.13;;;;;;;10.37;99.21;101748.47;5021964;28;20054;-46
2023/12/17 10:00:55;;;;;;;11.65;2.92;;;;;;;10.40;99.13;101745.03;5026604;28;20073;-47
2023/12/17 10:03:24;;;;;;;8.90;2.00;;;;;;;10.44;98.92;101733.31;5029719;28;20041;-49
2023/12/17 10:05:53;;;;;;;7.97;1.75;;;;;;;10.49;98.77;101752.56;5029916;28;20053;-47
2023/12/17 10:08:22;;;;;;;10.18;2.50;;;;;;;10.53;98.84;101754.38;5030009;28;20492;-49
2023/12/17 10:10:50;;;;;;;11.93;1.70;;;;;;;10.57;98.79;101749.81;5028630;28;20047;-50
2023/12/17 10:13:19;;;;;;;13.57;4.07;;;;;;;10.64;98.73;101743.84;5028560;28;20037;-46
2023/12/17 10:15:54;;;;;;;7.45;1.73;;;;;;;10.70;98.62;101742.53;5029182;28;20046;-46
2023/12/17 10:18:22;;;;;;;8.88;2.25;;;;;;;10.76;98.73;101744.00;5018443;28;20058;-46
2023/12/17 10:20:50;;;;;;;6.95;2.22;;;;;;;10.84;98.69;101751.53;5028836;28;20052;-46
2023/12/17 10:23:17;;;;;;;7.03;2.67;;;;;;;10.91;98.27;101749.09;5029803;28;20048;-46
2023/12/17 10:25:45;;;;;;;8.93;2.58;;;;;;;10.98;98.02;101764.13;5029539;28;20057;-48
2023/12/17 10:28:13;;;;;;;5.78;2.33;;;;;;;11.02;97.73;101748.47;5028331;28;20048;-46
2023/12/17 10:30:41;;;;;;;8.43;1.98;;;;;;;11.05;97.80;101744.25;5028393;28;20038;-53
2023/12/17 10:33:16;;;;;;;8.38;2.92;;;;;;;11.10;97.82;101752.41;5028419;28;20049;-48
2023/12/17 10:35:44;;;;;;;11.18;2.50;;;;;;;11.12;97.64;101733.47;5029270;28;20049;-49
2023/12/17 10:38:14;;;;;;;12.23;2.00;;;;;;;11.17;97.76;101751.94;5029070;28;20057;-51
2023/12/17 10:40:42;;;;;;;15.40;4.28;;;;;;;11.22;97.58;101749.00;5029539;28;20049;-51
2023/12/17 10:43:12;;;;;;;14.63;2.53;;;;;;;11.31;97.37;101756.16;5029014;28;20056;-48
2023/12/17 10:45:43;;;;;;;13.27;3.05;;;;;;;11.36;97.04;101753.22;5026519;28;20071;-52
2023/12/17 10:48:12;;;;;;;8.90;2.42;;;;;;;11.39;96.97;101752.56;5027863;28;20048;-48
2023/12/17 10:50:41;;;;;;;12.02;2.35;;;;;;;11.41;96.69;101741.19;5028578;28;20072;-47
2023/12/17 10:53:09;;;;;;;9.93;3.15;;;;;;;11.41;96.54;101747.50;5028728;28;20521;-48
2023/12/17 10:55:36;;;;;;;7.07;2.47;;;;;;;11.43;96.42;101734.16;5010836;28;20039;-47
2023/12/17 10:58:08;;;;;;;6.13;1.77;;;;;;;11.45;96.18;101736.59;5028195;28;20522;-49
2023/12/17 11:00:39;;;;;;;13.38;2.50;;;;;;;11.46;96.02;101722.38;5027409;28;20049;-47
2023/12/17 11:03:09;;;;;;;9.05;1.65;;;;;;;11.46;96.01;101724.38;5024330;28;20045;-46
2023/12/17 11:05:37;;;;;;;12.10;2.25;;;;;;;11.46;95.74;101716.84;5011500;28;20057;-48
2023/12/17 11:08:08;;;;;;;10.93;2.28;;;;;;;11.51;95.91;101716.69;5023419;28;20780;-47
2023/12/17 11:10:39;;;;;;;12.43;2.35;;;;;;;11.55;95.69;101719.63;5028064;28;20046;-47
2023/12/17 11:13:06;;;;;;;18.23;4.32;;;;;;;11.61;95.39;101707.22;5028451;28;20056;-49
2023/12/17 11:15:33;;;;;;;13.18;4.15;;;;;;;11.66;95.26;101704.25;5027235;28;20045;-48
2023/12/17 11:18:01;;;;;;;12.13;1.92;;;;;;;11.70;95.20;101699.75;5018424;28;20053;-50
2023/12/17 11:20:35;;;;;;;8.85;1.98;;;;;;;11.74;95.11;101697.91;5027428;28;20056;-50
2023/12/17 11:23:04;;;;;;;14.30;2.60;;;;;;;11.78;95.11;101701.66;5027939;28;20050;-49
2023/12/17 11:25:34;;;;;;;7.63;2.83;;;;;;;11.79;94.88;101703.28;5027775;28;20056;-49
2023/12/17 11:28:02;;;;;;;15.85;3.97;;;;;;;11.79;94.66;101716.34;5027066;28;20052;-46
2023/12/17 11:30:31;;;;;;;10.13;2.22;;;;;;;11.78;94.44;101711.97;5029110;28;20057;-47
2023/12/17 11:33:01;;;;;;;12.57;2.30;;;;;;;11.79;94.37;101702.47;5028100;28;20049;-49
2023/12/17 11:35:32;;;;;;;7.97;2.28;;;;;;;11.78;94.13;101701.66;5030174;28;20041;-47